createdAt,value
2023-04-16T00:01:35.164Z,62.34
2023-04-16T00:04:01.947Z,60.40
2023-04-16T00:06:28.948Z,59.10
2023-04-16T00:08:56.190Z,59.48
2023-04-16T00:11:22.827Z,58.51
2023-04-16T00:13:49.661Z,61.53
2023-04-16T00:16:16.457Z,65.87
2023-04-16T00:18:43.162Z,62.95
2023-04-16T00:21:09.778Z,62.19
2023-04-16T00:23:36.505Z,61.22
2023-04-16T00:26:03.244Z,60.78
2023-04-16T00:28:29.935Z,61.87
2023-04-16T00:30:56.802Z,61.64
2023-04-16T00:33:23.807Z,63.69
2023-04-16T00:35:51.339Z,64.72
2023-04-16T00:38:18.260Z,66.54
2023-04-16T00:40:44.909Z,68.31
2023-04-16T00:43:11.632Z,70.91
2023-04-16T00:45:38.639Z,73.58
2023-04-16T00:48:06.074Z,74.69
2023-04-16T00:50:33.771Z,74.49
2023-04-16T00:53:01.733Z,74.14
2023-04-16T00:55:28.448Z,74.89
2023-04-16T00:57:55.211Z,76.38
2023-04-16T01:00:22.141Z,76.58
2023-04-16T01:02:48.931Z,77.84
2023-04-16T01:05:15.802Z,77.56
2023-04-16T01:07:42.444Z,77.24
2023-04-16T01:10:09.109Z,78.35
2023-04-16T01:12:35.922Z,76.31
2023-04-16T01:15:03.313Z,76.18
2023-04-16T01:17:29.956Z,75.96
2023-04-16T01:20:00.136Z,77.90
2023-04-16T01:22:28.337Z,77.99
2023-04-16T01:24:55.097Z,80.55
2023-04-16T01:27:21.759Z,80.00
2023-04-16T01:29:48.504Z,80.37
2023-04-16T01:32:15.170Z,80.80
2023-04-16T01:34:41.924Z,80.92
2023-04-16T01:37:08.681Z,80.00
2023-04-16T01:39:35.645Z,79.56
2023-04-16T01:42:02.477Z,79.93
2023-04-16T01:44:29.255Z,79.55
2023-04-16T01:46:56.011Z,82.17
2023-04-16T01:49:23.017Z,81.30
2023-04-16T01:51:49.844Z,79.99
2023-04-16T01:54:16.627Z,84.70
2023-04-16T01:56:43.375Z,83.24
2023-04-16T01:59:10.266Z,81.58
2023-04-16T02:01:37.110Z,83.50
2023-04-16T02:04:03.959Z,79.61
2023-04-16T02:06:31.626Z,80.25
2023-04-16T02:08:58.290Z,79.84
2023-04-16T02:11:24.855Z,79.04
2023-04-16T02:13:51.497Z,77.53
2023-04-16T02:16:18.246Z,77.14
2023-04-16T02:18:44.945Z,78.21
2023-04-16T02:21:11.599Z,80.04
2023-04-16T02:23:41.260Z,81.22
2023-04-16T02:26:07.944Z,81.16
2023-04-16T02:28:34.478Z,82.36
2023-04-16T02:31:01.159Z,84.98
2023-04-16T02:33:27.866Z,88.57
2023-04-16T02:35:54.533Z,94.39
2023-04-16T02:38:21.713Z,91.41
2023-04-16T02:40:48.388Z,88.59
2023-04-16T02:43:15.029Z,87.95
2023-04-16T02:45:41.724Z,88.13
2023-04-16T02:48:09.926Z,87.86
2023-04-16T02:50:36.570Z,84.07
2023-04-16T02:53:04.297Z,87.75
2023-04-16T02:55:30.883Z,86.72
2023-04-16T02:57:57.527Z,89.95
2023-04-16T03:00:24.216Z,91.54
2023-04-16T03:02:51.180Z,89.59
2023-04-16T03:05:17.926Z,89.05
2023-04-16T03:07:44.527Z,90.05
2023-04-16T03:10:12.094Z,90.61
2023-04-16T03:12:39.306Z,89.98
2023-04-16T03:15:06.328Z,88.69
2023-04-16T03:17:33.021Z,88.12
2023-04-16T03:19:59.814Z,88.53
2023-04-16T03:22:27.044Z,89.48
2023-04-16T03:24:53.756Z,91.88
2023-04-16T03:27:20.416Z,94.65
2023-04-16T03:29:47.062Z,93.29
2023-04-16T03:32:13.805Z,91.05
2023-04-16T03:34:40.458Z,92.10
2023-04-16T03:37:07.193Z,93.36
2023-04-16T03:39:34.565Z,95.00
2023-04-16T03:42:02.262Z,97.23
2023-04-16T03:44:29.705Z,95.65
2023-04-16T03:46:56.387Z,93.34
2023-04-16T03:49:23.261Z,93.65
2023-04-16T03:51:49.839Z,93.55
2023-04-16T03:54:16.415Z,91.88
2023-04-16T03:56:43.184Z,90.94
2023-04-16T03:59:10.232Z,89.98
2023-04-16T04:01:36.984Z,88.41
2023-04-16T04:04:04.000Z,85.22
2023-04-16T04:06:31.177Z,85.07
2023-04-16T04:08:58.327Z,88.13
2023-04-16T04:11:24.977Z,90.50
2023-04-16T04:13:51.575Z,88.87
2023-04-16T04:16:18.266Z,88.88
2023-04-16T04:18:45.007Z,88.93
2023-04-16T04:21:11.776Z,91.11
2023-04-16T04:23:38.519Z,89.59
2023-04-16T04:26:05.877Z,89.57
2023-04-16T04:28:33.163Z,91.57
2023-04-16T04:31:00.687Z,92.57
2023-04-16T04:33:27.744Z,95.43
2023-04-16T04:35:55.129Z,94.80
2023-04-16T04:38:25.270Z,93.41
2023-04-16T04:40:52.933Z,94.31
2023-04-16T04:43:23.050Z,93.70
2023-04-16T04:45:49.773Z,94.85
2023-04-16T04:48:16.705Z,94.37
2023-04-16T04:50:46.163Z,93.71
2023-04-16T04:53:14.833Z,93.72
2023-04-16T04:55:41.526Z,95.24
2023-04-16T04:58:08.676Z,93.67
2023-04-16T05:00:37.004Z,95.42
2023-04-16T05:03:06.874Z,96.29
2023-04-16T05:05:33.698Z,96.56
2023-04-16T05:08:00.375Z,96.12
2023-04-16T05:10:27.503Z,95.52
2023-04-16T05:12:54.260Z,95.06
2023-04-16T05:15:21.082Z,94.02
2023-04-16T05:17:47.751Z,92.38
2023-04-16T05:20:14.668Z,91.47
2023-04-16T05:22:41.451Z,89.21
2023-04-16T05:25:08.442Z,87.50
2023-04-16T05:27:35.122Z,85.17
2023-04-16T05:30:01.772Z,83.89
2023-04-16T05:32:28.418Z,81.80
2023-04-16T05:34:55.121Z,81.88
2023-04-16T05:37:22.321Z,81.01
2023-04-16T05:39:49.042Z,77.93
2023-04-16T05:42:15.886Z,75.64
2023-04-16T05:44:42.639Z,72.58
2023-04-16T05:47:09.583Z,70.49
2023-04-16T05:49:39.352Z,68.29
2023-04-16T05:52:06.367Z,66.06
2023-04-16T05:54:32.965Z,66.25
2023-04-16T05:57:01.130Z,68.21
2023-04-16T05:59:27.990Z,67.03
2023-04-16T06:01:54.725Z,67.11
2023-04-16T06:04:21.352Z,65.59
2023-04-16T06:06:48.067Z,65.59
2023-04-16T06:09:14.749Z,65.76
2023-04-16T06:11:41.442Z,65.01
2023-04-16T06:14:08.278Z,64.38
2023-04-16T06:16:34.863Z,64.26
2023-04-16T06:19:01.513Z,63.67
2023-04-16T06:21:29.126Z,62.95
2023-04-16T06:23:56.291Z,62.53
2023-04-16T06:26:23.091Z,62.43
2023-04-16T06:28:50.564Z,61.66
2023-04-16T06:31:17.323Z,60.88
2023-04-16T06:33:44.089Z,61.02
2023-04-16T06:36:11.647Z,59.71
2023-04-16T06:38:38.591Z,61.20
2023-04-16T06:41:05.420Z,60.61
2023-04-16T06:43:33.568Z,59.65
2023-04-16T06:46:00.363Z,58.91
2023-04-16T06:48:27.569Z,58.35
2023-04-16T06:50:55.691Z,57.39
2023-04-16T06:53:22.890Z,55.78
2023-04-16T06:55:49.593Z,54.95
2023-04-16T06:58:16.336Z,53.40
2023-04-16T07:00:42.995Z,52.96
2023-04-16T07:03:09.812Z,53.02
2023-04-16T07:05:36.607Z,51.97
2023-04-16T07:08:03.330Z,52.33
2023-04-16T07:10:29.954Z,53.25
2023-04-16T07:12:56.599Z,53.82
2023-04-16T07:15:23.570Z,54.37
2023-04-16T07:17:50.883Z,54.66
2023-04-16T07:20:17.932Z,55.37
2023-04-16T07:22:44.589Z,56.17
2023-04-16T07:25:12.057Z,55.97
2023-04-16T07:27:38.655Z,56.24
2023-04-16T07:30:06.045Z,58.40
2023-04-16T07:32:32.894Z,57.12
2023-04-16T07:34:59.580Z,56.87
2023-04-16T07:37:26.585Z,56.42
2023-04-16T07:39:55.124Z,56.11
2023-04-16T07:42:22.811Z,55.40
2023-04-16T07:44:49.549Z,55.67
2023-04-16T07:47:16.246Z,56.11
2023-04-16T07:49:42.804Z,56.98
2023-04-16T07:52:09.579Z,55.00
2023-04-16T07:54:36.423Z,54.17
2023-04-16T07:57:03.152Z,53.13
2023-04-16T07:59:30.347Z,52.92
2023-04-16T08:01:57.534Z,52.61
2023-04-16T08:04:25.634Z,51.65
2023-04-16T08:06:52.806Z,51.53
2023-04-16T08:09:20.730Z,52.24
2023-04-16T08:11:49.259Z,51.75
2023-04-16T08:14:19.068Z,51.21
2023-04-16T08:16:45.880Z,51.77
2023-04-16T08:19:12.802Z,51.99
2023-04-16T08:21:39.621Z,51.75
2023-04-16T08:24:06.566Z,51.27
2023-04-16T08:26:33.831Z,49.93
2023-04-16T08:29:00.649Z,48.91
2023-04-16T08:31:27.569Z,49.74
2023-04-16T08:33:54.424Z,48.93
2023-04-16T08:36:21.339Z,50.01
2023-04-16T08:38:48.356Z,50.34
2023-04-16T08:41:15.842Z,50.85
2023-04-16T08:43:45.431Z,50.92
2023-04-16T08:46:13.022Z,51.54
2023-04-16T08:48:43.046Z,50.27
2023-04-16T08:51:11.165Z,48.81
2023-04-16T08:53:54.510Z,48.79
2023-04-16T08:56:27.279Z,48.22
2023-04-16T08:58:55.511Z,47.19
2023-04-16T09:01:22.798Z,46.89
2023-04-16T09:03:50.146Z,47.21
2023-04-16T09:06:18.418Z,46.56
2023-04-16T09:08:46.487Z,46.04
2023-04-16T09:11:14.529Z,45.31
2023-04-16T09:13:41.311Z,46.02
2023-04-16T09:16:09.939Z,47.10
2023-04-16T09:18:36.675Z,48.72
2023-04-16T09:21:04.651Z,49.62
2023-04-16T09:23:31.424Z,47.85
2023-04-16T09:25:59.610Z,46.83
2023-04-16T09:28:48.939Z,46.16
2023-04-16T09:31:17.920Z,46.20
2023-04-16T09:34:05.627Z,46.20
2023-04-16T09:36:32.973Z,45.47
2023-04-16T09:39:00.494Z,45.00
2023-04-16T09:41:29.498Z,45.23
2023-04-16T09:43:58.219Z,44.76
2023-04-16T09:46:45.111Z,45.10
2023-04-16T09:49:16.821Z,44.67
2023-04-16T09:51:46.254Z,43.80
2023-04-16T09:54:12.987Z,43.19
2023-04-16T09:56:42.139Z,43.36
2023-04-16T09:59:16.616Z,42.38
2023-04-16T10:01:43.566Z,42.04
2023-04-16T10:04:10.578Z,40.95
2023-04-16T10:06:37.186Z,40.93
2023-04-16T10:09:07.951Z,41.01
2023-04-16T10:11:35.106Z,41.05
2023-04-16T10:14:01.712Z,40.67
2023-04-16T10:16:32.267Z,39.77
2023-04-16T10:18:59.431Z,39.81
2023-04-16T10:21:33.083Z,39.06
2023-04-16T10:24:00.616Z,39.71
2023-04-16T10:26:30.156Z,40.03
2023-04-16T10:28:58.999Z,39.76
2023-04-16T10:31:27.341Z,39.45
2023-04-16T10:33:54.548Z,39.34
2023-04-16T10:36:26.446Z,39.35
2023-04-16T10:38:57.915Z,40.19
2023-04-16T10:41:26.778Z,38.97
2023-04-16T10:43:53.562Z,38.78
2023-04-16T10:46:26.736Z,38.82
2023-04-16T10:48:54.840Z,40.20
2023-04-16T10:51:24.390Z,40.01
2023-04-16T10:53:51.003Z,39.70
2023-04-16T10:56:26.250Z,39.78
2023-04-16T10:58:58.481Z,39.92
2023-04-16T11:01:44.895Z,39.77
2023-04-16T11:04:20.840Z,39.49
2023-04-16T11:07:17.134Z,39.59
2023-04-16T11:09:57.545Z,40.23
2023-04-16T11:12:35.929Z,39.76
2023-04-16T11:15:06.451Z,39.11
2023-04-16T11:17:47.326Z,40.96
2023-04-16T11:20:22.822Z,39.94
2023-04-16T11:22:52.873Z,40.00
2023-04-16T11:25:34.065Z,41.15
2023-04-16T11:28:02.405Z,41.35
2023-04-16T11:30:30.653Z,40.85
2023-04-16T11:32:57.373Z,40.82
2023-04-16T11:35:24.032Z,40.94
2023-04-16T11:37:55.610Z,40.92
2023-04-16T11:40:22.358Z,40.79
2023-04-16T11:42:48.938Z,40.98
2023-04-16T11:45:15.642Z,40.62
2023-04-16T11:47:53.218Z,40.45
2023-04-16T11:50:23.634Z,40.98
2023-04-16T11:52:52.160Z,40.80
2023-04-16T11:55:19.589Z,40.70
2023-04-16T11:57:46.431Z,40.74
2023-04-16T12:00:14.307Z,41.22
2023-04-16T12:02:50.584Z,40.32
2023-04-16T12:05:38.946Z,39.79
2023-04-16T12:08:11.280Z,39.74
2023-04-16T12:10:53.245Z,40.27
2023-04-16T12:13:20.374Z,39.88
2023-04-16T12:15:56.085Z,39.65
2023-04-16T12:18:26.931Z,39.73
2023-04-16T12:20:53.869Z,39.17
2023-04-16T12:23:29.161Z,38.65
2023-04-16T12:25:59.784Z,37.87
2023-04-16T12:28:35.529Z,38.09
2023-04-16T12:31:03.376Z,38.23
2023-04-16T12:33:30.993Z,38.78
2023-04-16T12:35:57.672Z,39.76
2023-04-16T12:38:25.637Z,38.69
2023-04-16T12:40:53.095Z,37.65
2023-04-16T12:43:21.487Z,37.38
2023-04-16T12:45:48.750Z,37.68
2023-04-16T12:48:15.557Z,37.87
2023-04-16T12:50:44.368Z,38.86
2023-04-16T12:53:12.099Z,39.00
2023-04-16T12:55:39.122Z,39.89
2023-04-16T12:58:05.750Z,40.71
2023-04-16T13:00:32.884Z,40.59
2023-04-16T13:02:59.814Z,41.57
2023-04-16T13:05:27.224Z,42.11
2023-04-16T13:07:54.202Z,42.35
2023-04-16T13:10:21.983Z,42.52
2023-04-16T13:12:49.147Z,43.31
2023-04-16T13:15:15.872Z,44.35
2023-04-16T13:17:42.624Z,44.51
2023-04-16T13:20:09.986Z,45.16
2023-04-16T13:22:37.017Z,44.91
2023-04-16T13:25:03.841Z,46.22
2023-04-16T13:27:32.143Z,48.29
2023-04-16T13:29:58.821Z,49.92
2023-04-16T13:32:25.668Z,50.35
2023-04-16T13:34:52.317Z,51.75
2023-04-16T13:37:18.941Z,53.00
2023-04-16T13:39:45.739Z,52.91
2023-04-16T13:42:12.317Z,53.65
2023-04-16T13:44:39.090Z,51.84
2023-04-16T13:47:05.899Z,51.88
2023-04-16T13:49:35.758Z,52.85
2023-04-16T13:52:02.998Z,54.36
2023-04-16T13:54:29.685Z,62.57
2023-04-16T13:56:56.371Z,72.37
2023-04-16T13:59:23.095Z,79.94
2023-04-16T14:01:49.791Z,80.64
2023-04-16T14:04:16.673Z,79.14
2023-04-16T14:06:43.232Z,77.90
2023-04-16T14:09:10.871Z,80.75
2023-04-16T14:11:37.804Z,83.98
2023-04-16T14:14:04.798Z,81.87
2023-04-16T14:16:31.554Z,86.50
2023-04-16T14:18:58.239Z,87.95
2023-04-16T14:21:24.853Z,93.31
2023-04-16T14:23:51.418Z,91.62
2023-04-16T14:26:18.084Z,88.21
2023-04-16T14:28:44.851Z,80.32
2023-04-16T14:31:11.419Z,75.42
2023-04-16T14:33:38.208Z,73.04
2023-04-16T14:36:05.406Z,70.74
2023-04-16T14:38:32.221Z,72.87
2023-04-16T14:41:00.379Z,81.40
2023-04-16T14:43:29.988Z,83.92
2023-04-16T14:45:59.031Z,89.38
2023-04-16T14:48:25.923Z,94.55
2023-04-16T14:50:53.690Z,100.00
2023-04-16T14:53:20.485Z,100.00
2023-04-16T14:55:47.782Z,100.00
2023-04-16T14:58:14.658Z,100.00
2023-04-16T15:00:41.433Z,100.00
2023-04-16T15:03:08.336Z,100.00
2023-04-16T15:05:35.317Z,100.00
2023-04-16T15:08:02.346Z,100.00
2023-04-16T15:10:29.048Z,100.00
2023-04-16T15:12:55.783Z,100.00
2023-04-16T15:15:22.503Z,100.00
2023-04-16T15:17:51.080Z,100.00
2023-04-16T15:20:18.037Z,100.00
2023-04-16T15:22:44.859Z,100.00
2023-04-16T15:25:11.646Z,100.00
2023-04-16T15:27:38.306Z,100.00
2023-04-16T15:30:05.433Z,100.00
2023-04-16T15:32:32.485Z,100.00
2023-04-16T15:35:00.016Z,100.00
2023-04-16T15:37:26.708Z,100.00
2023-04-16T15:39:53.308Z,100.00
2023-04-16T15:42:19.919Z,100.00
2023-04-16T15:44:46.557Z,100.00
2023-04-16T15:47:13.260Z,100.00
2023-04-16T15:49:39.921Z,100.00
2023-04-16T15:52:06.756Z,100.00
2023-04-16T15:54:33.727Z,100.00
2023-04-16T15:57:02.191Z,100.00
2023-04-16T15:59:29.108Z,100.00
2023-04-16T16:01:55.962Z,100.00
2023-04-16T16:04:23.414Z,100.00
2023-04-16T16:06:50.960Z,100.00
2023-04-16T16:09:18.651Z,100.00
2023-04-16T16:11:45.326Z,100.00
2023-04-16T16:14:11.998Z,100.00
2023-04-16T16:16:39.806Z,100.00
2023-04-16T16:19:07.235Z,100.00
2023-04-16T16:21:33.988Z,100.00
2023-04-16T16:24:00.593Z,100.00
2023-04-16T16:26:27.231Z,100.00
2023-04-16T16:28:53.825Z,100.00
2023-04-16T16:31:20.983Z,100.00
2023-04-16T16:33:47.738Z,100.00
2023-04-16T16:36:14.631Z,100.00
2023-04-16T16:38:42.514Z,100.00
2023-04-16T16:41:09.180Z,100.00
2023-04-16T16:43:36.785Z,100.00
2023-04-16T16:46:03.790Z,100.00
2023-04-16T16:48:30.463Z,100.00
2023-04-16T16:50:57.372Z,100.00
2023-04-16T16:53:23.985Z,100.00
2023-04-16T16:55:50.935Z,100.00
2023-04-16T16:58:17.602Z,100.00
2023-04-16T17:00:44.436Z,100.00
2023-04-16T17:03:11.416Z,100.00
2023-04-16T17:05:38.295Z,100.00
2023-04-16T17:08:05.053Z,100.00
2023-04-16T17:10:31.750Z,100.00
2023-04-16T17:12:58.450Z,100.00
2023-04-16T17:15:25.101Z,100.00
2023-04-16T17:17:51.813Z,100.00
2023-04-16T17:20:18.708Z,100.00
2023-04-16T17:22:45.457Z,100.00
2023-04-16T17:25:12.455Z,100.00
2023-04-16T17:27:39.369Z,100.00
2023-04-16T17:30:06.791Z,100.00
2023-04-16T17:32:33.641Z,100.00
2023-04-16T17:35:01.156Z,100.00
2023-04-16T17:37:27.978Z,100.00
2023-04-16T17:39:54.674Z,100.00
2023-04-16T17:42:21.768Z,100.00
2023-04-16T17:44:49.024Z,100.00
2023-04-16T17:47:15.974Z,100.00
2023-04-16T17:49:43.055Z,100.00
2023-04-16T17:52:09.920Z,100.00
2023-04-16T17:54:36.563Z,100.00
2023-04-16T17:57:03.196Z,100.00
2023-04-16T17:59:33.415Z,100.00
2023-04-16T18:02:01.510Z,100.00
2023-04-16T18:04:28.491Z,100.00
2023-04-16T18:06:55.320Z,100.00
2023-04-16T18:09:21.950Z,100.00
2023-04-16T18:11:48.631Z,100.00
2023-04-16T18:14:19.904Z,100.00
2023-04-16T18:16:48.148Z,100.00
2023-04-16T18:19:16.176Z,100.00
2023-04-16T18:21:43.356Z,100.00
2023-04-16T18:24:10.429Z,100.00
2023-04-16T18:26:37.613Z,100.00
2023-04-16T18:29:05.549Z,100.00
2023-04-16T18:31:32.936Z,100.00
2023-04-16T18:33:59.749Z,100.00
2023-04-16T18:36:27.265Z,100.00
2023-04-16T18:39:00.923Z,100.00
2023-04-16T18:41:29.069Z,100.00
2023-04-16T18:43:55.930Z,100.00
2023-04-16T18:46:22.953Z,100.00
2023-04-16T18:48:49.838Z,100.00
2023-04-16T18:51:16.812Z,100.00
2023-04-16T18:53:45.513Z,100.00
2023-04-16T18:56:14.159Z,100.00
2023-04-16T18:58:40.812Z,100.00
2023-04-16T19:01:11.270Z,100.00
2023-04-16T19:03:38.567Z,100.00
2023-04-16T19:06:06.080Z,100.00
2023-04-16T19:08:33.060Z,100.00
2023-04-16T19:10:59.940Z,100.00
2023-04-16T19:13:26.751Z,100.00
2023-04-16T19:16:02.795Z,100.00
2023-04-16T19:18:29.471Z,100.00
2023-04-16T19:21:00.713Z,100.00
2023-04-16T19:23:28.096Z,100.00
2023-04-16T19:25:57.893Z,100.00
2023-04-16T19:28:25.012Z,100.00
2023-04-16T19:30:52.243Z,100.00
2023-04-16T19:33:19.196Z,100.00
2023-04-16T19:35:46.430Z,100.00
2023-04-16T19:38:13.252Z,100.00
2023-04-16T19:40:40.384Z,100.00
2023-04-16T19:43:07.176Z,100.00
2023-04-16T19:45:33.884Z,100.00
2023-04-16T19:48:00.595Z,100.00
2023-04-16T19:50:27.249Z,100.00
2023-04-16T19:52:53.883Z,100.00
2023-04-16T19:55:20.549Z,100.00
2023-04-16T19:57:48.136Z,100.00
2023-04-16T20:00:15.284Z,100.00
2023-04-16T20:02:42.056Z,100.00
2023-04-16T20:05:09.332Z,100.00
2023-04-16T20:07:36.065Z,100.00
2023-04-16T20:10:03.056Z,100.00
2023-04-16T20:12:29.825Z,100.00
2023-04-16T20:14:56.443Z,100.00
2023-04-16T20:17:23.344Z,100.00
2023-04-16T20:19:51.277Z,100.00
2023-04-16T20:22:18.903Z,100.00
2023-04-16T20:24:47.964Z,100.00
2023-04-16T20:27:15.349Z,100.00
2023-04-16T20:29:42.194Z,100.00
2023-04-16T20:32:08.928Z,100.00
2023-04-16T20:34:36.719Z,100.00
2023-04-16T20:37:03.906Z,100.00
2023-04-16T20:39:34.216Z,100.00
2023-04-16T20:42:04.227Z,100.00
2023-04-16T20:44:40.443Z,100.00
2023-04-16T20:47:08.723Z,100.00
2023-04-16T20:49:35.568Z,100.00
2023-04-16T20:52:02.572Z,100.00
2023-04-16T20:54:31.996Z,100.00
2023-04-16T20:56:59.022Z,100.00
2023-04-16T20:59:26.068Z,100.00
2023-04-16T21:01:52.901Z,100.00
2023-04-16T21:04:19.610Z,100.00
2023-04-16T21:06:46.793Z,100.00
2023-04-16T21:09:13.457Z,100.00
2023-04-16T21:11:40.431Z,100.00
2023-04-16T21:14:07.070Z,100.00
2023-04-16T21:16:33.857Z,100.00
2023-04-16T21:19:00.493Z,100.00
2023-04-16T21:21:27.592Z,100.00
2023-04-16T21:23:54.257Z,100.00
2023-04-16T21:26:21.331Z,100.00
2023-04-16T21:28:48.320Z,100.00
2023-04-16T21:31:15.204Z,100.00
2023-04-16T21:33:42.016Z,100.00
2023-04-16T21:36:08.934Z,100.00
2023-04-16T21:38:35.680Z,100.00
2023-04-16T21:41:02.587Z,100.00
2023-04-16T21:43:30.686Z,100.00
2023-04-16T21:45:57.904Z,100.00
2023-04-16T21:48:24.893Z,100.00
2023-04-16T21:50:59.209Z,100.00
2023-04-16T21:53:28.086Z,100.00
2023-04-16T21:55:54.741Z,100.00
2023-04-16T21:58:21.357Z,100.00
2023-04-16T22:00:48.036Z,100.00
2023-04-16T22:03:14.954Z,100.00
2023-04-16T22:05:41.689Z,100.00
2023-04-16T22:08:23.629Z,100.00
2023-04-16T22:10:51.372Z,100.00
2023-04-16T22:13:18.238Z,100.00
2023-04-16T22:15:44.861Z,100.00
2023-04-16T22:18:11.781Z,100.00
2023-04-16T22:20:39.205Z,100.00
2023-04-16T22:23:06.718Z,100.00
2023-04-16T22:25:33.740Z,100.00
2023-04-16T22:28:03.617Z,100.00
2023-04-16T22:30:30.359Z,100.00
2023-04-16T22:32:57.792Z,100.00
2023-04-16T22:35:24.436Z,100.00
2023-04-16T22:37:51.089Z,100.00
2023-04-16T22:40:18.309Z,100.00
2023-04-16T22:42:44.960Z,100.00
2023-04-16T22:45:12.686Z,100.00
2023-04-16T22:47:39.507Z,100.00
2023-04-16T22:50:06.768Z,100.00
2023-04-16T22:52:33.501Z,100.00
2023-04-16T22:55:00.165Z,100.00
2023-04-16T22:57:26.828Z,100.00
2023-04-16T22:59:53.613Z,100.00
2023-04-16T23:02:21.557Z,100.00
2023-04-16T23:04:48.375Z,100.00
2023-04-16T23:07:15.821Z,100.00
2023-04-16T23:09:42.655Z,100.00
2023-04-16T23:12:09.285Z,100.00
2023-04-16T23:14:37.059Z,100.00
2023-04-16T23:17:03.732Z,100.00
2023-04-16T23:19:31.299Z,100.00
2023-04-16T23:21:58.210Z,100.00
2023-04-16T23:24:25.139Z,100.00
2023-04-16T23:26:52.506Z,100.00
2023-04-16T23:29:21.094Z,100.00
2023-04-16T23:31:47.940Z,100.00
2023-04-16T23:34:14.944Z,100.00
2023-04-16T23:36:41.769Z,100.00
2023-04-16T23:39:08.388Z,100.00
2023-04-16T23:41:35.151Z,100.00
2023-04-16T23:44:01.867Z,100.00
2023-04-16T23:46:28.558Z,100.00
2023-04-16T23:48:55.470Z,100.00
2023-04-16T23:51:22.388Z,100.00
2023-04-16T23:53:49.087Z,100.00
2023-04-16T23:56:16.368Z,100.00
2023-04-16T23:58:43.010Z,100.00
